sensor_id;sensor_type;location;lat;lon;timestamp;P1;durP1;ratioP1;P2;durP2;ratioP2
75930;SDS011;64609;47.052;15.462;2022-12-11T00:01:09;4.15;;;1.90;;
75930;SDS011;64609;47.052;15.462;2022-12-11T00:03:36;2.08;;;1.60;;
75930;SDS011;64609;47.052;15.462;2022-12-11T00:06:05;1.73;;;1.30;;
75930;SDS011;64609;47.052;15.462;2022-12-11T00:08:33;1.42;;;1.20;;
75930;SDS011;64609;47.052;15.462;2022-12-11T00:10:59;1.77;;;1.60;;
75930;SDS011;64609;47.052;15.462;2022-12-11T00:13:24;2.65;;;1.35;;
75930;SDS011;64609;47.052;15.462;2022-12-11T00:15:50;2.20;;;1.20;;
75930;SDS011;64609;47.052;15.462;2022-12-11T00:18:16;1.25;;;1.15;;
75930;SDS011;64609;47.052;15.462;2022-12-11T00:20:41;1.30;;;1.20;;
75930;SDS011;64609;47.052;15.462;2022-12-11T00:23:07;2.78;;;1.50;;
75930;SDS011;64609;47.052;15.462;2022-12-11T00:25:34;1.77;;;1.48;;
75930;SDS011;64609;47.052;15.462;2022-12-11T00:28:04;1.83;;;1.20;;
75930;SDS011;64609;47.052;15.462;2022-12-11T00:30:30;4.10;;;1.40;;
75930;SDS011;64609;47.052;15.462;2022-12-11T00:32:56;1.50;;;1.40;;
75930;SDS011;64609;47.052;15.462;2022-12-11T00:35:21;1.30;;;1.20;;
75930;SDS011;64609;47.052;15.462;2022-12-11T00:37:47;1.70;;;1.40;;
75930;SDS011;64609;47.052;15.462;2022-12-11T00:40:12;1.75;;;1.30;;
75930;SDS011;64609;47.052;15.462;2022-12-11T00:42:38;1.10;;;1.10;;
75930;SDS011;64609;47.052;15.462;2022-12-11T00:45:03;3.88;;;1.40;;
75930;SDS011;64609;47.052;15.462;2022-12-11T00:47:29;1.40;;;1.20;;
75930;SDS011;64609;47.052;15.462;2022-12-11T00:49:55;1.40;;;1.30;;
75930;SDS011;64609;47.052;15.462;2022-12-11T00:52:21;2.53;;;1.35;;
75930;SDS011;64609;47.052;15.462;2022-12-11T00:54:46;1.50;;;1.35;;
75930;SDS011;64609;47.052;15.462;2022-12-11T00:57:12;2.08;;;1.30;;
75930;SDS011;64609;47.052;15.462;2022-12-11T00:59:37;1.20;;;1.10;;
75930;SDS011;64609;47.052;15.462;2022-12-11T01:02:03;2.10;;;1.30;;
75930;SDS011;64609;47.052;15.462;2022-12-11T01:04:29;1.48;;;1.33;;
75930;SDS011;64609;47.052;15.462;2022-12-11T01:06:54;1.73;;;1.30;;
75930;SDS011;64609;47.052;15.462;2022-12-11T01:09:20;1.70;;;1.40;;
75930;SDS011;64609;47.052;15.462;2022-12-11T01:12:04;1.60;;;1.20;;
75930;SDS011;64609;47.052;15.462;2022-12-11T01:14:29;2.80;;;1.10;;
75930;SDS011;64609;47.052;15.462;2022-12-11T01:16:55;1.55;;;1.30;;
75930;SDS011;64609;47.052;15.462;2022-12-11T01:19:21;1.48;;;1.20;;
75930;SDS011;64609;47.052;15.462;2022-12-11T01:21:47;1.50;;;1.40;;
75930;SDS011;64609;47.052;15.462;2022-12-11T01:24:12;2.17;;;1.50;;
75930;SDS011;64609;47.052;15.462;2022-12-11T01:26:38;1.45;;;1.33;;
75930;SDS011;64609;47.052;15.462;2022-12-11T01:29:03;1.77;;;1.35;;
75930;SDS011;64609;47.052;15.462;2022-12-11T01:31:29;2.17;;;1.55;;
75930;SDS011;64609;47.052;15.462;2022-12-11T01:33:55;1.63;;;1.40;;
75930;SDS011;64609;47.052;15.462;2022-12-11T01:36:21;1.83;;;1.30;;
75930;SDS011;64609;47.052;15.462;2022-12-11T01:38:47;1.67;;;1.40;;
75930;SDS011;64609;47.052;15.462;2022-12-11T01:41:14;1.30;;;1.20;;
75930;SDS011;64609;47.052;15.462;2022-12-11T01:44:02;1.55;;;1.20;;
75930;SDS011;64609;47.052;15.462;2022-12-11T01:46:32;1.70;;;1.45;;
75930;SDS011;64609;47.052;15.462;2022-12-11T01:49:00;1.55;;;1.33;;
75930;SDS011;64609;47.052;15.462;2022-12-11T01:51:28;2.00;;;1.50;;
75930;SDS011;64609;47.052;15.462;2022-12-11T01:53:58;1.52;;;1.30;;
75930;SDS011;64609;47.052;15.462;2022-12-11T01:56:29;1.95;;;1.20;;
75930;SDS011;64609;47.052;15.462;2022-12-11T01:58:58;1.35;;;1.25;;
75930;SDS011;64609;47.052;15.462;2022-12-11T02:01:32;1.63;;;1.30;;
75930;SDS011;64609;47.052;15.462;2022-12-11T02:04:03;1.73;;;1.42;;
75930;SDS011;64609;47.052;15.462;2022-12-11T02:06:38;2.15;;;1.50;;
75930;SDS011;64609;47.052;15.462;2022-12-11T02:09:09;2.03;;;1.30;;
75930;SDS011;64609;47.052;15.462;2022-12-11T02:11:46;1.33;;;1.20;;
75930;SDS011;64609;47.052;15.462;2022-12-11T02:17:25;1.20;;;1.10;;
75930;SDS011;64609;47.052;15.462;2022-12-11T02:20:23;0.93;;;0.93;;
75930;SDS011;64609;47.052;15.462;2022-12-11T02:31:12;1.85;;;1.65;;
75930;SDS011;64609;47.052;15.462;2022-12-11T02:33:45;3.35;;;1.27;;
75930;SDS011;64609;47.052;15.462;2022-12-11T02:38:52;2.75;;;1.17;;
75930;SDS011;64609;47.052;15.462;2022-12-11T02:41:20;2.45;;;0.90;;
75930;SDS011;64609;47.052;15.462;2022-12-11T02:43:49;0.93;;;0.90;;
75930;SDS011;64609;47.052;15.462;2022-12-11T02:46:15;1.05;;;0.90;;
75930;SDS011;64609;47.052;15.462;2022-12-11T02:48:44;0.95;;;0.93;;
75930;SDS011;64609;47.052;15.462;2022-12-11T02:51:12;1.42;;;1.10;;
75930;SDS011;64609;47.052;15.462;2022-12-11T02:53:40;1.90;;;1.13;;
75930;SDS011;64609;47.052;15.462;2022-12-11T02:56:53;1.13;;;1.02;;
75930;SDS011;64609;47.052;15.462;2022-12-11T02:59:08;2.30;;;1.00;;
75930;SDS011;64609;47.052;15.462;2022-12-11T03:01:52;0.98;;;0.95;;
75930;SDS011;64609;47.052;15.462;2022-12-11T03:04:18;1.20;;;1.10;;
75930;SDS011;64609;47.052;15.462;2022-12-11T03:06:49;2.58;;;1.60;;
75930;SDS011;64609;47.052;15.462;2022-12-11T03:09:18;1.65;;;1.00;;
75930;SDS011;64609;47.052;15.462;2022-12-11T03:11:44;2.17;;;1.38;;
75930;SDS011;64609;47.052;15.462;2022-12-11T03:14:09;1.60;;;1.20;;
75930;SDS011;64609;47.052;15.462;2022-12-11T03:16:36;2.92;;;1.00;;
75930;SDS011;64609;47.052;15.462;2022-12-11T03:19:10;2.73;;;1.30;;
75930;SDS011;64609;47.052;15.462;2022-12-11T03:21:59;3.00;;;1.10;;
75930;SDS011;64609;47.052;15.462;2022-12-11T03:24:36;1.20;;;1.10;;
75930;SDS011;64609;47.052;15.462;2022-12-11T03:29:59;1.55;;;1.00;;
75930;SDS011;64609;47.052;15.462;2022-12-11T03:32:35;1.02;;;1.02;;
75930;SDS011;64609;47.052;15.462;2022-12-11T03:35:10;2.00;;;1.10;;
75930;SDS011;64609;47.052;15.462;2022-12-11T03:37:39;1.27;;;1.08;;
75930;SDS011;64609;47.052;15.462;2022-12-11T03:40:15;1.95;;;1.23;;
75930;SDS011;64609;47.052;15.462;2022-12-11T03:42:43;1.33;;;1.23;;
75930;SDS011;64609;47.052;15.462;2022-12-11T03:47:40;1.20;;;1.00;;
75930;SDS011;64609;47.052;15.462;2022-12-11T03:50:07;2.35;;;1.30;;
75930;SDS011;64609;47.052;15.462;2022-12-11T03:52:35;1.10;;;1.00;;
75930;SDS011;64609;47.052;15.462;2022-12-11T03:55:04;1.50;;;1.30;;
75930;SDS011;64609;47.052;15.462;2022-12-11T03:57:32;5.15;;;1.10;;
75930;SDS011;64609;47.052;15.462;2022-12-11T04:00:01;1.77;;;1.27;;
75930;SDS011;64609;47.052;15.462;2022-12-11T04:02:29;2.45;;;1.40;;
75930;SDS011;64609;47.052;15.462;2022-12-11T04:04:54;1.58;;;1.20;;
75930;SDS011;64609;47.052;15.462;2022-12-11T04:07:20;1.38;;;1.23;;
75930;SDS011;64609;47.052;15.462;2022-12-11T04:09:46;3.25;;;1.13;;
75930;SDS011;64609;47.052;15.462;2022-12-11T04:12:12;1.65;;;1.17;;
75930;SDS011;64609;47.052;15.462;2022-12-11T04:14:37;1.48;;;1.23;;
75930;SDS011;64609;47.052;15.462;2022-12-11T04:17:21;1.35;;;1.10;;
75930;SDS011;64609;47.052;15.462;2022-12-11T04:20:05;2.38;;;1.48;;
75930;SDS011;64609;47.052;15.462;2022-12-11T04:22:50;2.33;;;1.42;;
75930;SDS011;64609;47.052;15.462;2022-12-11T04:25:34;2.15;;;1.50;;
75930;SDS011;64609;47.052;15.462;2022-12-11T04:27:59;2.15;;;1.60;;
75930;SDS011;64609;47.052;15.462;2022-12-11T04:30:25;2.28;;;1.50;;
75930;SDS011;64609;47.052;15.462;2022-12-11T04:32:51;1.83;;;1.52;;
75930;SDS011;64609;47.052;15.462;2022-12-11T04:35:18;2.97;;;1.58;;
75930;SDS011;64609;47.052;15.462;2022-12-11T04:37:44;1.92;;;1.55;;
75930;SDS011;64609;47.052;15.462;2022-12-11T04:40:11;1.73;;;1.38;;
75930;SDS011;64609;47.052;15.462;2022-12-11T04:42:39;1.50;;;1.40;;
75930;SDS011;64609;47.052;15.462;2022-12-11T04:45:05;3.20;;;1.35;;
75930;SDS011;64609;47.052;15.462;2022-12-11T04:47:33;2.65;;;1.60;;
75930;SDS011;64609;47.052;15.462;2022-12-11T04:50:00;1.80;;;1.50;;
75930;SDS011;64609;47.052;15.462;2022-12-11T04:52:25;2.13;;;1.60;;
75930;SDS011;64609;47.052;15.462;2022-12-11T04:54:51;1.80;;;1.50;;
75930;SDS011;64609;47.052;15.462;2022-12-11T04:57:17;2.63;;;1.40;;
75930;SDS011;64609;47.052;15.462;2022-12-11T04:59:44;2.97;;;1.80;;
75930;SDS011;64609;47.052;15.462;2022-12-11T05:02:10;2.00;;;1.80;;
75930;SDS011;64609;47.052;15.462;2022-12-11T05:04:35;2.42;;;1.60;;
75930;SDS011;64609;47.052;15.462;2022-12-11T05:07:01;2.10;;;1.50;;
75930;SDS011;64609;47.052;15.462;2022-12-11T05:09:27;1.65;;;1.42;;
75930;SDS011;64609;47.052;15.462;2022-12-11T05:11:53;1.92;;;1.50;;
75930;SDS011;64609;47.052;15.462;2022-12-11T05:14:19;1.55;;;1.30;;
75930;SDS011;64609;47.052;15.462;2022-12-11T05:16:46;1.63;;;1.52;;
75930;SDS011;64609;47.052;15.462;2022-12-11T05:19:11;3.15;;;1.90;;
75930;SDS011;64609;47.052;15.462;2022-12-11T05:21:37;1.73;;;1.40;;
75930;SDS011;64609;47.052;15.462;2022-12-11T05:24:03;1.33;;;1.23;;
75930;SDS011;64609;47.052;15.462;2022-12-11T05:26:28;2.25;;;1.60;;
75930;SDS011;64609;47.052;15.462;2022-12-11T05:28:54;1.90;;;1.70;;
75930;SDS011;64609;47.052;15.462;2022-12-11T05:31:21;2.67;;;1.48;;
75930;SDS011;64609;47.052;15.462;2022-12-11T05:33:49;2.28;;;1.75;;
75930;SDS011;64609;47.052;15.462;2022-12-11T05:36:17;1.70;;;1.52;;
75930;SDS011;64609;47.052;15.462;2022-12-11T05:38:44;1.80;;;1.45;;
75930;SDS011;64609;47.052;15.462;2022-12-11T05:41:11;1.67;;;1.50;;
75930;SDS011;64609;47.052;15.462;2022-12-11T05:43:39;1.70;;;1.48;;
75930;SDS011;64609;47.052;15.462;2022-12-11T05:46:06;1.90;;;1.60;;
75930;SDS011;64609;47.052;15.462;2022-12-11T05:48:37;1.75;;;1.50;;
75930;SDS011;64609;47.052;15.462;2022-12-11T05:51:04;1.50;;;1.40;;
75930;SDS011;64609;47.052;15.462;2022-12-11T05:53:31;1.65;;;1.45;;
75930;SDS011;64609;47.052;15.462;2022-12-11T05:56:01;1.63;;;1.40;;
75930;SDS011;64609;47.052;15.462;2022-12-11T05:58:41;2.03;;;1.70;;
75930;SDS011;64609;47.052;15.462;2022-12-11T06:01:09;2.70;;;1.65;;
75930;SDS011;64609;47.052;15.462;2022-12-11T06:03:40;1.83;;;1.40;;
75930;SDS011;64609;47.052;15.462;2022-12-11T06:06:06;1.58;;;1.48;;
75930;SDS011;64609;47.052;15.462;2022-12-11T06:08:33;2.05;;;1.75;;
75930;SDS011;64609;47.052;15.462;2022-12-11T06:10:59;1.70;;;1.20;;
75930;SDS011;64609;47.052;15.462;2022-12-11T06:13:25;1.65;;;1.45;;
75930;SDS011;64609;47.052;15.462;2022-12-11T06:15:51;1.90;;;1.55;;
75930;SDS011;64609;47.052;15.462;2022-12-11T06:18:17;1.65;;;1.52;;
75930;SDS011;64609;47.052;15.462;2022-12-11T06:20:43;1.63;;;1.50;;
75930;SDS011;64609;47.052;15.462;2022-12-11T06:23:09;1.80;;;1.40;;
75930;SDS011;64609;47.052;15.462;2022-12-11T06:25:37;1.70;;;1.50;;
75930;SDS011;64609;47.052;15.462;2022-12-11T06:28:03;2.45;;;1.80;;
75930;SDS011;64609;47.052;15.462;2022-12-11T06:30:28;1.50;;;1.40;;
75930;SDS011;64609;47.052;15.462;2022-12-11T06:32:54;2.08;;;1.58;;
75930;SDS011;64609;47.052;15.462;2022-12-11T06:35:21;1.92;;;1.42;;
75930;SDS011;64609;47.052;15.462;2022-12-11T06:37:47;3.15;;;1.80;;
75930;SDS011;64609;47.052;15.462;2022-12-11T06:40:13;2.55;;;1.60;;
75930;SDS011;64609;47.052;15.462;2022-12-11T06:42:39;1.50;;;1.40;;
75930;SDS011;64609;47.052;15.462;2022-12-11T06:45:05;5.13;;;1.80;;
75930;SDS011;64609;47.052;15.462;2022-12-11T06:47:31;2.42;;;1.92;;
75930;SDS011;64609;47.052;15.462;2022-12-11T06:49:57;2.45;;;1.73;;
75930;SDS011;64609;47.052;15.462;2022-12-11T06:52:23;2.38;;;1.50;;
75930;SDS011;64609;47.052;15.462;2022-12-11T06:54:51;4.15;;;1.70;;
75930;SDS011;64609;47.052;15.462;2022-12-11T06:57:17;2.20;;;1.70;;
75930;SDS011;64609;47.052;15.462;2022-12-11T06:59:43;2.33;;;1.70;;
75930;SDS011;64609;47.052;15.462;2022-12-11T07:02:15;1.80;;;1.58;;
75930;SDS011;64609;47.052;15.462;2022-12-11T07:04:43;2.28;;;1.95;;
75930;SDS011;64609;47.052;15.462;2022-12-11T07:07:08;2.92;;;1.92;;
75930;SDS011;64609;47.052;15.462;2022-12-11T07:09:36;2.33;;;1.85;;
75930;SDS011;64609;47.052;15.462;2022-12-11T07:12:03;3.08;;;1.90;;
75930;SDS011;64609;47.052;15.462;2022-12-11T07:14:30;2.20;;;1.80;;
75930;SDS011;64609;47.052;15.462;2022-12-11T07:16:56;2.55;;;1.95;;
75930;SDS011;64609;47.052;15.462;2022-12-11T07:19:22;3.40;;;2.22;;
75930;SDS011;64609;47.052;15.462;2022-12-11T07:21:48;2.45;;;1.73;;
75930;SDS011;64609;47.052;15.462;2022-12-11T07:24:13;2.50;;;1.80;;
75930;SDS011;64609;47.052;15.462;2022-12-11T07:26:39;3.08;;;2.20;;
75930;SDS011;64609;47.052;15.462;2022-12-11T07:29:05;2.40;;;2.00;;
75930;SDS011;64609;47.052;15.462;2022-12-11T07:31:30;2.10;;;1.90;;
75930;SDS011;64609;47.052;15.462;2022-12-11T07:33:57;2.50;;;2.00;;
75930;SDS011;64609;47.052;15.462;2022-12-11T07:36:25;11.75;;;2.38;;
75930;SDS011;64609;47.052;15.462;2022-12-11T07:38:52;4.70;;;2.30;;
75930;SDS011;64609;47.052;15.462;2022-12-11T07:41:18;3.20;;;2.22;;
75930;SDS011;64609;47.052;15.462;2022-12-11T07:43:44;3.95;;;2.60;;
75930;SDS011;64609;47.052;15.462;2022-12-11T07:46:11;4.35;;;2.42;;
75930;SDS011;64609;47.052;15.462;2022-12-11T07:48:39;3.25;;;2.20;;
75930;SDS011;64609;47.052;15.462;2022-12-11T07:51:07;8.48;;;2.67;;
75930;SDS011;64609;47.052;15.462;2022-12-11T07:53:33;4.57;;;2.90;;
75930;SDS011;64609;47.052;15.462;2022-12-11T07:55:59;3.42;;;2.60;;
75930;SDS011;64609;47.052;15.462;2022-12-11T07:58:24;3.40;;;2.58;;
75930;SDS011;64609;47.052;15.462;2022-12-11T08:00:50;3.63;;;2.50;;
75930;SDS011;64609;47.052;15.462;2022-12-11T08:03:16;4.32;;;2.40;;
75930;SDS011;64609;47.052;15.462;2022-12-11T08:05:46;3.97;;;3.00;;
75930;SDS011;64609;47.052;15.462;2022-12-11T08:08:13;3.22;;;2.40;;
75930;SDS011;64609;47.052;15.462;2022-12-11T08:10:39;2.80;;;2.30;;
75930;SDS011;64609;47.052;15.462;2022-12-11T08:13:05;3.47;;;2.70;;
75930;SDS011;64609;47.052;15.462;2022-12-11T08:15:31;3.25;;;2.58;;
75930;SDS011;64609;47.052;15.462;2022-12-11T08:17:57;4.65;;;2.88;;
75930;SDS011;64609;47.052;15.462;2022-12-11T08:20:23;4.13;;;2.67;;
75930;SDS011;64609;47.052;15.462;2022-12-11T08:22:48;3.72;;;2.47;;
75930;SDS011;64609;47.052;15.462;2022-12-11T08:25:14;3.50;;;2.60;;
75930;SDS011;64609;47.052;15.462;2022-12-11T08:27:40;4.10;;;3.00;;
75930;SDS011;64609;47.052;15.462;2022-12-11T08:30:06;3.55;;;2.80;;
75930;SDS011;64609;47.052;15.462;2022-12-11T08:32:32;4.82;;;2.95;;
75930;SDS011;64609;47.052;15.462;2022-12-11T08:34:59;8.55;;;3.72;;
75930;SDS011;64609;47.052;15.462;2022-12-11T08:37:24;3.00;;;2.65;;
75930;SDS011;64609;47.052;15.462;2022-12-11T08:39:50;4.32;;;2.88;;
75930;SDS011;64609;47.052;15.462;2022-12-11T08:42:16;5.70;;;3.53;;
75930;SDS011;64609;47.052;15.462;2022-12-11T08:44:41;4.22;;;2.90;;
75930;SDS011;64609;47.052;15.462;2022-12-11T08:47:07;4.75;;;2.85;;
75930;SDS011;64609;47.052;15.462;2022-12-11T08:49:34;3.28;;;2.53;;
75930;SDS011;64609;47.052;15.462;2022-12-11T08:52:00;2.85;;;2.40;;
75930;SDS011;64609;47.052;15.462;2022-12-11T08:54:27;3.70;;;2.80;;
75930;SDS011;64609;47.052;15.462;2022-12-11T08:56:53;3.47;;;2.50;;
75930;SDS011;64609;47.052;15.462;2022-12-11T08:59:18;3.33;;;2.40;;
75930;SDS011;64609;47.052;15.462;2022-12-11T09:01:44;9.23;;;6.15;;
75930;SDS011;64609;47.052;15.462;2022-12-11T09:04:10;6.60;;;4.22;;
75930;SDS011;64609;47.052;15.462;2022-12-11T09:06:35;6.18;;;4.35;;
75930;SDS011;64609;47.052;15.462;2022-12-11T09:09:01;8.32;;;3.35;;
75930;SDS011;64609;47.052;15.462;2022-12-11T09:11:30;3.55;;;2.78;;
75930;SDS011;64609;47.052;15.462;2022-12-11T09:13:57;2.92;;;2.35;;
75930;SDS011;64609;47.052;15.462;2022-12-11T09:16:24;4.13;;;2.40;;
75930;SDS011;64609;47.052;15.462;2022-12-11T09:18:51;5.20;;;3.00;;
75930;SDS011;64609;47.052;15.462;2022-12-11T09:21:18;4.65;;;2.67;;
75930;SDS011;64609;47.052;15.462;2022-12-11T09:23:46;3.22;;;2.22;;
75930;SDS011;64609;47.052;15.462;2022-12-11T09:26:13;3.70;;;2.63;;
75930;SDS011;64609;47.052;15.462;2022-12-11T09:28:40;3.42;;;2.60;;
75930;SDS011;64609;47.052;15.462;2022-12-11T09:31:07;4.70;;;3.00;;
75930;SDS011;64609;47.052;15.462;2022-12-11T09:33:43;3.22;;;2.50;;
75930;SDS011;64609;47.052;15.462;2022-12-11T09:36:11;5.25;;;2.53;;
75930;SDS011;64609;47.052;15.462;2022-12-11T09:38:37;3.50;;;2.55;;
75930;SDS011;64609;47.052;15.462;2022-12-11T09:46:24;3.47;;;2.38;;
75930;SDS011;64609;47.052;15.462;2022-12-11T09:48:50;4.32;;;3.00;;
75930;SDS011;64609;47.052;15.462;2022-12-11T09:51:20;4.03;;;2.92;;
75930;SDS011;64609;47.052;15.462;2022-12-11T09:53:54;4.82;;;2.45;;
75930;SDS011;64609;47.052;15.462;2022-12-11T09:56:29;5.88;;;2.95;;
75930;SDS011;64609;47.052;15.462;2022-12-11T10:07:31;2.85;;;2.22;;
75930;SDS011;64609;47.052;15.462;2022-12-11T10:10:18;3.28;;;2.33;;
75930;SDS011;64609;47.052;15.462;2022-12-11T10:12:51;3.42;;;2.35;;
75930;SDS011;64609;47.052;15.462;2022-12-11T10:15:43;3.75;;;2.60;;
75930;SDS011;64609;47.052;15.462;2022-12-11T10:18:21;3.08;;;2.55;;
75930;SDS011;64609;47.052;15.462;2022-12-11T10:20:50;4.20;;;2.70;;
75930;SDS011;64609;47.052;15.462;2022-12-11T10:23:18;3.15;;;2.33;;
75930;SDS011;64609;47.052;15.462;2022-12-11T10:26:18;2.60;;;2.38;;
75930;SDS011;64609;47.052;15.462;2022-12-11T10:28:45;4.65;;;2.40;;
75930;SDS011;64609;47.052;15.462;2022-12-11T10:31:14;2.85;;;2.30;;
75930;SDS011;64609;47.052;15.462;2022-12-11T10:33:53;3.78;;;2.65;;
75930;SDS011;64609;47.052;15.462;2022-12-11T10:36:30;3.70;;;2.67;;
75930;SDS011;64609;47.052;15.462;2022-12-11T10:38:58;3.08;;;2.60;;
75930;SDS011;64609;47.052;15.462;2022-12-11T10:44:13;3.33;;;2.50;;
75930;SDS011;64609;47.052;15.462;2022-12-11T10:46:38;4.80;;;2.85;;
75930;SDS011;64609;47.052;15.462;2022-12-11T10:49:04;4.03;;;2.42;;
75930;SDS011;64609;47.052;15.462;2022-12-11T10:53:56;3.22;;;2.58;;
75930;SDS011;64609;47.052;15.462;2022-12-11T10:56:30;4.47;;;2.40;;
75930;SDS011;64609;47.052;15.462;2022-12-11T10:58:57;3.03;;;2.33;;
75930;SDS011;64609;47.052;15.462;2022-12-11T11:01:26;3.40;;;2.53;;
75930;SDS011;64609;47.052;15.462;2022-12-11T11:03:57;3.50;;;2.58;;
75930;SDS011;64609;47.052;15.462;2022-12-11T11:06:25;3.78;;;2.67;;
75930;SDS011;64609;47.052;15.462;2022-12-11T11:08:52;3.80;;;2.50;;
75930;SDS011;64609;47.052;15.462;2022-12-11T11:11:32;3.88;;;2.90;;
75930;SDS011;64609;47.052;15.462;2022-12-11T11:14:14;5.00;;;2.97;;
75930;SDS011;64609;47.052;15.462;2022-12-11T11:16:45;3.08;;;2.63;;
75930;SDS011;64609;47.052;15.462;2022-12-11T11:21:55;3.45;;;2.63;;
75930;SDS011;64609;47.052;15.462;2022-12-11T11:27:57;3.75;;;2.95;;
75930;SDS011;64609;47.052;15.462;2022-12-11T11:30:27;4.15;;;2.67;;
75930;SDS011;64609;47.052;15.462;2022-12-11T11:33:05;3.17;;;2.70;;
75930;SDS011;64609;47.052;15.462;2022-12-11T11:35:50;4.85;;;3.15;;
75930;SDS011;64609;47.052;15.462;2022-12-11T11:38:18;4.65;;;2.97;;
75930;SDS011;64609;47.052;15.462;2022-12-11T11:43:42;4.05;;;2.78;;
75930;SDS011;64609;47.052;15.462;2022-12-11T11:46:25;5.00;;;3.00;;
75930;SDS011;64609;47.052;15.462;2022-12-11T11:51:57;3.78;;;2.80;;
75930;SDS011;64609;47.052;15.462;2022-12-11T11:54:54;3.90;;;2.85;;
75930;SDS011;64609;47.052;15.462;2022-12-11T11:57:28;3.67;;;2.70;;
75930;SDS011;64609;47.052;15.462;2022-12-11T12:00:05;4.20;;;3.05;;
75930;SDS011;64609;47.052;15.462;2022-12-11T12:02:44;3.28;;;2.55;;
75930;SDS011;64609;47.052;15.462;2022-12-11T12:05:13;3.75;;;2.83;;
75930;SDS011;64609;47.052;15.462;2022-12-11T12:07:46;3.75;;;2.80;;
75930;SDS011;64609;47.052;15.462;2022-12-11T12:16:00;4.00;;;2.80;;
75930;SDS011;64609;47.052;15.462;2022-12-11T12:26:16;4.00;;;2.75;;
75930;SDS011;64609;47.052;15.462;2022-12-11T12:44:41;19.50;;;7.47;;
75930;SDS011;64609;47.052;15.462;2022-12-11T12:47:22;10.27;;;5.63;;
75930;SDS011;64609;47.052;15.462;2022-12-11T12:49:52;5.10;;;3.55;;
75930;SDS011;64609;47.052;15.462;2022-12-11T12:52:21;8.68;;;5.45;;
75930;SDS011;64609;47.052;15.462;2022-12-11T12:54:51;6.47;;;3.78;;
75930;SDS011;64609;47.052;15.462;2022-12-11T12:57:41;6.28;;;3.95;;
75930;SDS011;64609;47.052;15.462;2022-12-11T13:00:09;6.75;;;3.75;;
75930;SDS011;64609;47.052;15.462;2022-12-11T13:02:36;5.10;;;2.95;;
75930;SDS011;64609;47.052;15.462;2022-12-11T13:05:29;6.78;;;3.38;;
75930;SDS011;64609;47.052;15.462;2022-12-11T13:07:59;4.00;;;3.05;;
75930;SDS011;64609;47.052;15.462;2022-12-11T13:10:31;4.63;;;3.08;;
75930;SDS011;64609;47.052;15.462;2022-12-11T13:20:54;3.00;;;2.45;;
75930;SDS011;64609;47.052;15.462;2022-12-11T13:23:27;3.58;;;2.55;;
75930;SDS011;64609;47.052;15.462;2022-12-11T13:25:59;4.05;;;2.53;;
75930;SDS011;64609;47.052;15.462;2022-12-11T13:28:28;4.40;;;2.65;;
75930;SDS011;64609;47.052;15.462;2022-12-11T13:33:42;5.28;;;2.60;;
75930;SDS011;64609;47.052;15.462;2022-12-11T13:38:48;4.55;;;2.85;;
75930;SDS011;64609;47.052;15.462;2022-12-11T13:41:21;3.70;;;2.55;;
75930;SDS011;64609;47.052;15.462;2022-12-11T13:43:48;4.13;;;2.63;;
75930;SDS011;64609;47.052;15.462;2022-12-11T13:46:14;4.78;;;2.92;;
75930;SDS011;64609;47.052;15.462;2022-12-11T13:48:47;2.97;;;2.30;;
75930;SDS011;64609;47.052;15.462;2022-12-11T13:51:21;3.47;;;2.35;;
75930;SDS011;64609;47.052;15.462;2022-12-11T13:53:48;3.58;;;2.42;;
75930;SDS011;64609;47.052;15.462;2022-12-11T13:56:26;2.75;;;2.40;;
75930;SDS011;64609;47.052;15.462;2022-12-11T13:58:51;3.88;;;2.60;;
75930;SDS011;64609;47.052;15.462;2022-12-11T14:01:25;3.40;;;2.38;;
75930;SDS011;64609;47.052;15.462;2022-12-11T14:04:01;2.70;;;2.45;;
75930;SDS011;64609;47.052;15.462;2022-12-11T14:06:31;3.83;;;2.55;;
75930;SDS011;64609;47.052;15.462;2022-12-11T14:08:58;3.72;;;2.75;;
75930;SDS011;64609;47.052;15.462;2022-12-11T14:11:28;3.88;;;2.70;;
75930;SDS011;64609;47.052;15.462;2022-12-11T14:13:58;4.05;;;2.40;;
75930;SDS011;64609;47.052;15.462;2022-12-11T14:16:28;3.00;;;2.40;;
75930;SDS011;64609;47.052;15.462;2022-12-11T14:18:55;3.38;;;2.58;;
75930;SDS011;64609;47.052;15.462;2022-12-11T14:21:26;4.07;;;2.40;;
75930;SDS011;64609;47.052;15.462;2022-12-11T14:23:53;4.05;;;2.60;;
75930;SDS011;64609;47.052;15.462;2022-12-11T14:26:39;4.00;;;2.90;;
75930;SDS011;64609;47.052;15.462;2022-12-11T14:29:30;4.55;;;2.53;;
75930;SDS011;64609;47.052;15.462;2022-12-11T14:31:58;3.88;;;2.50;;
75930;SDS011;64609;47.052;15.462;2022-12-11T14:34:33;3.40;;;2.40;;
75930;SDS011;64609;47.052;15.462;2022-12-11T14:37:08;3.63;;;2.70;;
75930;SDS011;64609;47.052;15.462;2022-12-11T14:39:39;5.85;;;3.60;;
75930;SDS011;64609;47.052;15.462;2022-12-11T14:42:11;3.53;;;2.50;;
75930;SDS011;64609;47.052;15.462;2022-12-11T14:44:46;3.63;;;2.70;;
75930;SDS011;64609;47.052;15.462;2022-12-11T14:47:22;3.85;;;2.47;;
75930;SDS011;64609;47.052;15.462;2022-12-11T14:49:56;5.80;;;2.47;;
75930;SDS011;64609;47.052;15.462;2022-12-11T14:52:37;3.92;;;2.40;;
75930;SDS011;64609;47.052;15.462;2022-12-11T14:57:34;4.40;;;2.78;;
75930;SDS011;64609;47.052;15.462;2022-12-11T15:00:03;3.88;;;2.50;;
75930;SDS011;64609;47.052;15.462;2022-12-11T15:02:31;3.40;;;2.58;;
75930;SDS011;64609;47.052;15.462;2022-12-11T15:05:00;4.05;;;2.72;;
75930;SDS011;64609;47.052;15.462;2022-12-11T15:07:29;5.22;;;2.47;;
75930;SDS011;64609;47.052;15.462;2022-12-11T15:09:55;3.38;;;2.70;;
75930;SDS011;64609;47.052;15.462;2022-12-11T15:12:21;3.17;;;2.47;;
75930;SDS011;64609;47.052;15.462;2022-12-11T15:14:48;3.58;;;2.58;;
75930;SDS011;64609;47.052;15.462;2022-12-11T15:17:20;4.22;;;2.80;;
75930;SDS011;64609;47.052;15.462;2022-12-11T15:20:10;4.55;;;2.65;;
75930;SDS011;64609;47.052;15.462;2022-12-11T15:22:43;4.18;;;2.58;;
75930;SDS011;64609;47.052;15.462;2022-12-11T15:25:20;4.05;;;2.60;;
75930;SDS011;64609;47.052;15.462;2022-12-11T15:27:49;4.72;;;2.88;;
75930;SDS011;64609;47.052;15.462;2022-12-11T15:32:43;3.95;;;2.67;;
75930;SDS011;64609;47.052;15.462;2022-12-11T15:35:23;4.25;;;2.53;;
75930;SDS011;64609;47.052;15.462;2022-12-11T15:40:16;3.92;;;2.63;;
75930;SDS011;64609;47.052;15.462;2022-12-11T15:42:42;4.03;;;2.40;;
75930;SDS011;64609;47.052;15.462;2022-12-11T15:45:08;3.22;;;2.72;;
75930;SDS011;64609;47.052;15.462;2022-12-11T15:47:41;3.25;;;2.63;;
75930;SDS011;64609;47.052;15.462;2022-12-11T15:50:23;4.07;;;3.20;;
75930;SDS011;64609;47.052;15.462;2022-12-11T15:52:53;3.40;;;2.70;;
75930;SDS011;64609;47.052;15.462;2022-12-11T15:55:20;4.70;;;2.72;;
75930;SDS011;64609;47.052;15.462;2022-12-11T15:57:48;4.25;;;2.70;;
75930;SDS011;64609;47.052;15.462;2022-12-11T16:00:26;4.63;;;2.90;;
75930;SDS011;64609;47.052;15.462;2022-12-11T16:02:52;7.07;;;3.33;;
75930;SDS011;64609;47.052;15.462;2022-12-11T16:05:19;6.00;;;3.78;;
75930;SDS011;64609;47.052;15.462;2022-12-11T16:07:45;4.25;;;2.90;;
75930;SDS011;64609;47.052;15.462;2022-12-11T16:10:12;5.05;;;2.97;;
75930;SDS011;64609;47.052;15.462;2022-12-11T16:12:39;5.43;;;2.58;;
75930;SDS011;64609;47.052;15.462;2022-12-11T16:15:06;4.93;;;2.70;;
75930;SDS011;64609;47.052;15.462;2022-12-11T16:17:33;10.13;;;5.18;;
75930;SDS011;64609;47.052;15.462;2022-12-11T16:19:58;10.82;;;6.32;;
75930;SDS011;64609;47.052;15.462;2022-12-11T16:22:24;39.80;;;13.30;;
75930;SDS011;64609;47.052;15.462;2022-12-11T16:24:53;8.68;;;4.85;;
75930;SDS011;64609;47.052;15.462;2022-12-11T16:27:19;4.82;;;3.63;;